Time;durP1;ratioP1;P1;durP2;ratioP2;P2;SDS_P1;SDS_P2;PMS_P1;PMS_P2;Temp;Humidity;BMP_temperature;BMP_pressure;BME280_temperature;BME280_humidity;BME280_pressure;Samples;Min_cycle;Max_cycle;Signal;HPM_P1;HPM_P2
2024/01/13 00:00:57;;;;;;;27.20;16.75;;;5.60;99.90;;;;;;5010913;28;20177;-76
2024/01/13 00:03:23;;;;;;;26.70;16.97;;;5.60;99.90;;;;;;5050261;28;20180;-76
2024/01/13 00:05:49;;;;;;;27.40;16.93;;;5.60;99.90;;;;;;5032283;28;20228;-76
2024/01/13 00:08:14;;;;;;;27.23;15.93;;;5.60;99.90;;;;;;5031269;28;20603;-75
2024/01/13 00:10:40;;;;;;;25.50;16.73;;;5.60;99.90;;;;;;5024865;28;20242;-75
2024/01/13 00:13:08;;;;;;;27.03;17.13;;;5.60;99.90;;;;;;5032071;28;20200;-75
2024/01/13 00:15:34;;;;;;;25.45;16.02;;;5.60;99.90;;;;;;5024067;28;20193;-75
2024/01/13 00:18:00;;;;;;;25.23;15.93;;;5.60;99.90;;;;;;5053224;28;20173;-75
2024/01/13 00:20:25;;;;;;;29.67;17.17;;;5.60;99.90;;;;;;5047473;28;20182;-75
2024/01/13 00:22:51;;;;;;;27.83;15.87;;;5.60;99.90;;;;;;5026391;28;20180;-76
2024/01/13 00:25:17;;;;;;;26.23;16.13;;;5.60;99.90;;;;;;5030504;28;20192;-76
2024/01/13 00:27:42;;;;;;;21.50;14.03;;;5.60;99.90;;;;;;5034790;28;20524;-76
2024/01/13 00:30:08;;;;;;;27.20;15.00;;;5.60;99.90;;;;;;5047991;28;20184;-76
2024/01/13 00:32:34;;;;;;;26.45;15.82;;;5.60;99.90;;;;;;5049889;28;20587;-76
2024/01/13 00:35:00;;;;;;;25.10;15.57;;;5.60;99.90;;;;;;5049697;28;20208;-77
2024/01/13 00:37:26;;;;;;;27.58;15.65;;;5.60;99.90;;;;;;5029583;28;20177;-76
2024/01/13 00:39:52;;;;;;;24.80;15.27;;;5.50;99.90;;;;;;5026053;28;20256;-76
2024/01/13 00:42:18;;;;;;;25.30;16.30;;;5.50;99.90;;;;;;5031856;28;20235;-75
2024/01/13 00:44:43;;;;;;;25.77;15.00;;;5.50;99.90;;;;;;5031542;28;20197;-76
2024/01/13 00:47:09;;;;;;;23.80;15.10;;;5.50;99.90;;;;;;5053376;28;20177;-75
2024/01/13 00:49:35;;;;;;;22.00;14.60;;;5.50;99.90;;;;;;5041532;28;20170;-76
2024/01/13 00:52:00;;;;;;;25.63;16.20;;;5.50;99.90;;;;;;5030861;28;20227;-76
2024/01/13 00:54:26;;;;;;;24.17;15.00;;;5.50;99.90;;;;;;5055875;28;20224;-76
2024/01/13 00:56:53;;;;;;;28.37;16.10;;;5.50;99.90;;;;;;5054543;28;20242;-76
2024/01/13 00:59:19;;;;;;;20.77;14.07;;;5.50;99.90;;;;;;5017189;28;20198;-75
2024/01/13 01:01:45;;;;;;;26.73;16.10;;;5.50;99.90;;;;;;5046602;28;20172;-76
2024/01/13 01:04:11;;;;;;;24.57;15.03;;;5.50;99.90;;;;;;5035215;28;20209;-76
2024/01/13 01:06:36;;;;;;;22.23;14.80;;;5.50;99.90;;;;;;5035744;28;20588;-75
2024/01/13 01:09:02;;;;;;;25.27;16.33;;;5.50;99.90;;;;;;5034895;28;20184;-75
2024/01/13 01:11:28;;;;;;;29.97;16.13;;;5.50;99.90;;;;;;5035013;28;20267;-76
2024/01/13 01:13:53;;;;;;;25.70;15.63;;;5.50;99.90;;;;;;5052853;28;20209;-76
2024/01/13 01:16:19;;;;;;;24.53;14.47;;;5.50;99.90;;;;;;5034967;28;20177;-76
2024/01/13 01:18:45;;;;;;;28.20;15.90;;;5.50;99.90;;;;;;5035234;28;20560;-76
2024/01/13 01:21:12;;;;;;;25.80;16.57;;;5.50;99.90;;;;;;5018376;28;20682;-76
2024/01/13 01:23:38;;;;;;;22.55;15.70;;;5.50;99.90;;;;;;5015451;28;20181;-75
2024/01/13 01:26:03;;;;;;;26.43;16.60;;;5.50;99.90;;;;;;5022230;28;20554;-76
2024/01/13 01:28:29;;;;;;;27.40;15.93;;;5.50;99.90;;;;;;5035096;28;20216;-75
2024/01/13 01:30:55;;;;;;;25.43;15.97;;;5.50;99.90;;;;;;5034898;28;20238;-75
2024/01/13 01:33:21;;;;;;;23.97;14.87;;;5.50;99.90;;;;;;5055126;28;20207;-76
2024/01/13 01:35:47;;;;;;;26.33;15.98;;;5.50;99.90;;;;;;5055789;28;20193;-75
2024/01/13 01:38:12;;;;;;;24.90;16.00;;;5.50;99.90;;;;;;5041835;28;20173;-75
2024/01/13 01:40:40;;;;;;;25.07;15.13;;;5.50;99.90;;;;;;5048789;28;20173;-75
2024/01/13 01:43:06;;;;;;;25.77;15.40;;;5.50;99.90;;;;;;5053964;28;20311;-75
2024/01/13 01:45:31;;;;;;;22.70;14.47;;;5.50;99.90;;;;;;5052377;28;20303;-75
2024/01/13 01:48:01;;;;;;;26.37;15.77;;;5.50;99.90;;;;;;5034419;28;20173;-75
2024/01/13 01:50:27;;;;;;;22.17;14.63;;;5.50;99.90;;;;;;5016785;28;20264;-75
2024/01/13 01:52:53;;;;;;;28.13;14.87;;;5.50;99.90;;;;;;5052430;28;20204;-75
2024/01/13 01:55:19;;;;;;;25.37;15.13;;;5.50;99.90;;;;;;5033138;28;20670;-76
2024/01/13 01:57:44;;;;;;;21.27;15.13;;;5.50;99.90;;;;;;5045290;28;20209;-75
2024/01/13 02:00:10;;;;;;;27.10;16.00;;;5.50;99.90;;;;;;5030079;28;20586;-76
2024/01/13 02:02:39;;;;;;;21.35;13.40;;;5.50;99.90;;;;;;5034447;28;20177;-76
2024/01/13 02:05:05;;;;;;;26.63;16.43;;;5.50;99.90;;;;;;5043685;28;20250;-76
2024/01/13 02:07:33;;;;;;;27.27;17.05;;;5.50;99.90;;;;;;5052216;28;20915;-76
2024/01/13 02:09:59;;;;;;;21.27;14.27;;;5.50;99.90;;;;;;5030686;28;20200;-76
2024/01/13 02:12:25;;;;;;;28.83;16.23;;;5.50;99.90;;;;;;5040292;28;20268;-76
2024/01/13 02:14:54;;;;;;;29.13;15.85;;;5.50;99.90;;;;;;5051954;28;20597;-76
2024/01/13 02:17:21;;;;;;;27.23;15.43;;;5.50;99.90;;;;;;5017469;28;20276;-75
2024/01/13 02:19:46;;;;;;;23.67;15.18;;;5.50;99.90;;;;;;5051451;28;20174;-75
2024/01/13 02:22:12;;;;;;;26.50;15.27;;;5.50;99.90;;;;;;5035813;28;20226;-75
2024/01/13 02:24:38;;;;;;;23.17;15.73;;;5.50;99.90;;;;;;5051066;28;20569;-75
2024/01/13 02:27:04;;;;;;;22.73;14.30;;;5.50;99.90;;;;;;5017574;28;20176;-75
2024/01/13 02:29:29;;;;;;;23.90;13.40;;;5.50;99.90;;;;;;5033383;28;20243;-75
2024/01/13 02:31:55;;;;;;;22.53;15.53;;;5.50;99.90;;;;;;5044716;28;20576;-75
2024/01/13 02:34:21;;;;;;;21.77;14.93;;;5.50;99.90;;;;;;5022587;28;20212;-75
2024/01/13 02:36:46;;;;;;;22.60;13.97;;;5.50;99.90;;;;;;5033709;28;20181;-75
2024/01/13 02:39:12;;;;;;;25.00;15.57;;;5.50;99.90;;;;;;5051014;28;20177;-75
2024/01/13 02:41:38;;;;;;;19.77;13.33;;;5.50;99.90;;;;;;5051556;28;20215;-75
2024/01/13 02:44:04;;;;;;;22.33;15.10;;;5.50;99.90;;;;;;5027037;28;20232;-75
2024/01/13 02:46:29;;;;;;;22.90;14.18;;;5.60;99.90;;;;;;5025918;28;20177;-75
2024/01/13 02:48:58;;;;;;;19.03;11.33;;;5.60;99.90;;;;;;5052123;28;20177;-75
2024/01/13 02:51:23;;;;;;;19.55;13.43;;;5.60;99.90;;;;;;5051022;28;20192;-75
2024/01/13 02:53:49;;;;;;;22.93;13.00;;;5.60;99.90;;;;;;5051178;28;20212;-75
2024/01/13 02:56:15;;;;;;;16.70;11.70;;;5.60;99.90;;;;;;5043311;28;20231;-75
2024/01/13 02:58:41;;;;;;;20.63;12.20;;;5.60;99.90;;;;;;5042738;28;20256;-75
2024/01/13 03:01:07;;;;;;;22.40;13.90;;;5.60;99.90;;;;;;5032668;28;20590;-75
2024/01/13 03:03:36;;;;;;;22.25;14.60;;;5.60;99.90;;;;;;5050800;28;20583;-75
2024/01/13 03:06:03;;;;;;;19.45;12.63;;;5.70;99.90;;;;;;5033137;28;20199;-75
2024/01/13 03:08:29;;;;;;;16.52;11.70;;;5.60;99.90;;;;;;5032536;28;20185;-74
2024/01/13 03:10:55;;;;;;;19.10;11.07;;;5.70;99.90;;;;;;5065375;22;20610;-77
2024/01/13 03:13:21;;;;;;;20.43;13.30;;;5.70;99.90;;;;;;5044715;28;20952;-76
2024/01/13 03:15:46;;;;;;;18.17;11.00;;;5.70;99.90;;;;;;5049172;28;20691;-76
2024/01/13 03:18:12;;;;;;;17.50;10.73;;;5.70;99.90;;;;;;5066753;28;20168;-76
2024/01/13 03:20:38;;;;;;;22.53;12.70;;;5.70;99.90;;;;;;5052295;28;20730;-76
2024/01/13 03:23:03;;;;;;;16.77;11.83;;;5.70;99.90;;;;;;5052839;28;20737;-77
2024/01/13 03:25:29;;;;;;;21.17;12.90;;;5.70;99.90;;;;;;5036185;28;20181;-76
2024/01/13 03:27:55;;;;;;;19.53;12.20;;;5.70;99.90;;;;;;5052972;28;20218;-76
2024/01/13 03:30:20;;;;;;;15.37;10.90;;;5.70;99.90;;;;;;5069773;28;20550;-76
2024/01/13 03:32:46;;;;;;;20.27;12.30;;;5.70;99.90;;;;;;5052684;28;20184;-76
2024/01/13 03:35:12;;;;;;;17.00;11.87;;;5.70;99.90;;;;;;5072369;28;20251;-76
2024/01/13 03:37:37;;;;;;;17.40;11.87;;;5.70;99.90;;;;;;5054050;28;20180;-76
2024/01/13 03:40:03;;;;;;;18.23;11.40;;;5.70;99.90;;;;;;5052095;28;20649;-76
2024/01/13 03:42:29;;;;;;;19.80;11.82;;;5.70;99.90;;;;;;5060816;28;20180;-77
2024/01/13 03:44:56;;;;;;;20.63;12.60;;;5.70;99.90;;;;;;5029330;28;20171;-76
2024/01/13 03:47:22;;;;;;;18.58;11.65;;;5.70;99.90;;;;;;5035786;28;20183;-77
2024/01/13 03:49:48;;;;;;;18.95;12.75;;;5.70;99.90;;;;;;5034985;28;20569;-76
2024/01/13 03:52:14;;;;;;;20.63;11.80;;;5.70;99.90;;;;;;5035734;28;20176;-76
2024/01/13 03:54:41;;;;;;;18.40;11.87;;;5.70;99.90;;;;;;5059262;28;20571;-76
2024/01/13 03:57:07;;;;;;;23.35;12.85;;;5.70;99.90;;;;;;5047397;28;20253;-76
2024/01/13 03:59:33;;;;;;;20.03;11.60;;;5.70;99.90;;;;;;5069679;28;20263;-76
2024/01/13 04:01:58;;;;;;;17.17;12.10;;;5.70;99.90;;;;;;5052638;28;20578;-77
2024/01/13 04:04:24;;;;;;;20.43;13.97;;;5.70;99.90;;;;;;5069838;28;20184;-77
2024/01/13 04:06:50;;;;;;;19.50;11.93;;;5.70;99.90;;;;;;5052126;28;20274;-76
2024/01/13 04:09:16;;;;;;;20.10;12.60;;;5.70;99.90;;;;;;5069941;28;20571;-77
2024/01/13 04:11:41;;;;;;;16.80;11.10;;;5.70;99.90;;;;;;5035270;28;20223;-77
2024/01/13 04:14:07;;;;;;;18.60;13.10;;;5.70;99.90;;;;;;5073198;28;20203;-77
2024/01/13 04:16:33;;;;;;;18.20;12.00;;;5.70;99.90;;;;;;5050819;28;20219;-77
2024/01/13 04:18:58;;;;;;;18.70;11.57;;;5.80;99.90;;;;;;5036891;28;20688;-77
2024/01/13 04:21:24;;;;;;;15.53;10.37;;;5.80;99.90;;;;;;5034598;28;20212;-78
2024/01/13 04:23:51;;;;;;;15.93;10.40;;;5.70;99.90;;;;;;5056171;28;20321;-78
2024/01/13 04:26:19;;;;;;;19.83;11.55;;;5.70;99.90;;;;;;5041509;28;20596;-77
2024/01/13 04:28:45;;;;;;;18.55;11.60;;;5.70;99.90;;;;;;5043976;28;20307;-78
2024/01/13 04:31:10;;;;;;;17.90;12.27;;;5.70;99.90;;;;;;5067982;28;20345;-77
2024/01/13 04:33:36;;;;;;;23.90;14.47;;;5.70;99.90;;;;;;5073935;28;20291;-77
2024/01/13 04:36:02;;;;;;;14.70;10.67;;;5.70;99.90;;;;;;5055732;28;20598;-78
2024/01/13 04:38:28;;;;;;;15.53;10.90;;;5.70;99.90;;;;;;5064298;28;20541;-76
2024/01/13 04:40:53;;;;;;;19.63;12.30;;;5.70;99.90;;;;;;5051448;28;21021;-76
2024/01/13 04:43:19;;;;;;;17.30;10.50;;;5.70;99.90;;;;;;5051899;28;20727;-76
2024/01/13 04:45:45;;;;;;;18.63;11.57;;;5.70;99.90;;;;;;5039214;28;20180;-76
2024/01/13 04:48:15;;;;;;;19.23;10.90;;;5.70;99.90;;;;;;5073992;28;20172;-76
2024/01/13 04:50:42;;;;;;;15.23;11.23;;;5.70;99.90;;;;;;5071087;28;20265;-76
2024/01/13 04:53:07;;;;;;;20.77;11.93;;;5.70;99.90;;;;;;5019530;28;20176;-76
2024/01/13 04:55:33;;;;;;;13.40;10.60;;;5.70;99.90;;;;;;5038960;28;20173;-75
2024/01/13 04:57:59;;;;;;;16.77;10.07;;;5.70;99.90;;;;;;5055533;28;20211;-76
2024/01/13 05:00:24;;;;;;;15.60;10.73;;;5.70;99.90;;;;;;5055432;28;20200;-76
2024/01/13 05:02:50;;;;;;;15.37;10.30;;;5.70;99.90;;;;;;5052304;28;20747;-76
2024/01/13 05:05:16;;;;;;;15.00;10.50;;;5.70;99.90;;;;;;5038860;28;20208;-76
2024/01/13 05:07:41;;;;;;;14.70;10.93;;;5.70;99.90;;;;;;5071907;28;20179;-76
2024/01/13 05:10:07;;;;;;;14.90;10.90;;;5.70;99.90;;;;;;5054727;28;20235;-78
2024/01/13 05:12:33;;;;;;;13.20;9.63;;;5.70;99.90;;;;;;5055413;28;20185;-76
2024/01/13 05:14:59;;;;;;;15.00;10.57;;;5.70;99.90;;;;;;5068652;28;20639;-76
2024/01/13 05:17:24;;;;;;;17.00;11.67;;;5.70;99.90;;;;;;5051935;28;20263;-76
2024/01/13 05:19:50;;;;;;;16.80;11.27;;;5.70;99.90;;;;;;5064120;28;20193;-76
2024/01/13 05:22:16;;;;;;;17.37;11.20;;;5.70;99.90;;;;;;5073521;28;20716;-76
2024/01/13 05:24:42;;;;;;;16.50;10.60;;;5.80;99.90;;;;;;5056613;28;20272;-76
2024/01/13 05:27:08;;;;;;;13.60;9.95;;;5.80;99.90;;;;;;5071844;28;20176;-76
2024/01/13 05:29:34;;;;;;;16.67;11.13;;;5.80;99.90;;;;;;5071862;28;20815;-76
2024/01/13 05:31:59;;;;;;;17.80;10.00;;;5.80;99.90;;;;;;5054208;28;21195;-76
2024/01/13 05:34:25;;;;;;;16.80;11.50;;;5.80;99.90;;;;;;5072808;28;20203;-76
2024/01/13 05:36:51;;;;;;;15.43;11.17;;;5.80;99.90;;;;;;5038445;28;20177;-76
2024/01/13 05:39:16;;;;;;;19.07;12.87;;;5.80;99.90;;;;;;5029646;28;20753;-76
2024/01/13 05:41:42;;;;;;;17.23;11.17;;;5.80;99.90;;;;;;5073061;28;20595;-76
2024/01/13 05:44:08;;;;;;;19.47;12.90;;;5.80;99.90;;;;;;5038219;28;20172;-76
2024/01/13 05:46:33;;;;;;;17.30;13.43;;;5.80;99.90;;;;;;5072602;28;20211;-77
2024/01/13 05:49:01;;;;;;;19.80;12.83;;;5.80;99.90;;;;;;5067319;28;20516;-76
2024/01/13 05:51:28;;;;;;;19.85;13.60;;;5.80;99.90;;;;;;5042966;28;20208;-76
2024/01/13 05:53:54;;;;;;;17.23;13.00;;;5.80;99.90;;;;;;5072493;28;20527;-76
2024/01/13 05:56:20;;;;;;;21.90;15.15;;;5.80;99.90;;;;;;5054305;28;20180;-76
2024/01/13 05:58:45;;;;;;;21.33;13.57;;;5.80;99.90;;;;;;5072604;28;20168;-76
2024/01/13 06:01:11;;;;;;;17.40;10.60;;;5.80;99.90;;;;;;5072372;28;20280;-76
2024/01/13 06:03:37;;;;;;;19.60;13.30;;;5.80;99.90;;;;;;5075075;28;20595;-76
2024/01/13 06:06:02;;;;;;;16.13;11.93;;;5.80;99.90;;;;;;5080929;28;20574;-77
2024/01/13 06:08:29;;;;;;;19.23;12.93;;;5.80;99.90;;;;;;5077500;28;20536;-76
2024/01/13 06:10:54;;;;;;;18.33;11.85;;;5.80;99.90;;;;;;5075568;28;20688;-76
2024/01/13 06:13:20;;;;;;;16.67;11.67;;;5.80;99.90;;;;;;5062157;28;20678;-76
2024/01/13 06:15:46;;;;;;;18.77;12.03;;;5.80;99.90;;;;;;5056388;28;20180;-76
2024/01/13 06:18:11;;;;;;;17.57;12.50;;;5.80;99.90;;;;;;5054969;28;20180;-76
2024/01/13 06:20:37;;;;;;;18.43;12.90;;;5.80;99.90;;;;;;5054017;28;20528;-77
2024/01/13 06:23:03;;;;;;;17.20;11.23;;;5.70;99.90;;;;;;5055107;28;20192;-77
2024/01/13 06:25:29;;;;;;;19.60;10.97;;;5.70;99.90;;;;;;5046273;28;20267;-76
2024/01/13 06:27:54;;;;;;;19.10;12.57;;;5.70;99.90;;;;;;5054292;28;20629;-76
2024/01/13 06:30:20;;;;;;;17.17;11.03;;;5.80;99.90;;;;;;5053561;28;20235;-76
2024/01/13 06:32:46;;;;;;;14.67;10.40;;;5.70;99.90;;;;;;5071873;28;20184;-76
2024/01/13 06:35:11;;;;;;;14.30;9.90;;;5.70;99.90;;;;;;5053863;28;20199;-77
2024/01/13 06:37:37;;;;;;;13.77;10.73;;;5.70;99.90;;;;;;5055112;28;20204;-76
2024/01/13 06:40:03;;;;;;;13.40;9.43;;;5.80;99.90;;;;;;5071439;28;20196;-76
2024/01/13 06:42:29;;;;;;;14.70;9.38;;;5.80;99.90;;;;;;5067093;28;20527;-76
2024/01/13 06:44:54;;;;;;;13.10;9.77;;;5.80;99.90;;;;;;5045257;28;20179;-76
2024/01/13 06:47:20;;;;;;;13.77;9.70;;;5.90;99.90;;;;;;5053382;28;20176;-77
2024/01/13 06:49:46;;;;;;;14.30;10.40;;;5.90;99.90;;;;;;5028021;28;20541;-76
2024/01/13 06:52:12;;;;;;;13.33;9.80;;;5.90;99.90;;;;;;5036865;28;20172;-76
2024/01/13 06:54:38;;;;;;;14.47;10.50;;;6.00;99.90;;;;;;5053161;28;20600;-76
2024/01/13 06:57:04;;;;;;;15.75;10.93;;;6.00;99.90;;;;;;5053400;28;20582;-76
2024/01/13 06:59:30;;;;;;;15.07;10.27;;;6.00;99.90;;;;;;5061432;28;20180;-77
2024/01/13 07:01:55;;;;;;;15.70;10.23;;;6.00;99.90;;;;;;5058573;28;21049;-76
2024/01/13 07:04:21;;;;;;;17.03;12.27;;;6.00;99.90;;;;;;5040479;28;20268;-76
2024/01/13 07:06:47;;;;;;;21.07;11.57;;;6.10;99.90;;;;;;5032412;28;20173;-76
2024/01/13 07:09:13;;;;;;;15.67;11.13;;;6.00;99.90;;;;;;5055309;28;20176;-77
2024/01/13 07:11:38;;;;;;;15.30;10.70;;;6.00;99.90;;;;;;5057601;28;20308;-77
2024/01/13 07:14:05;;;;;;;14.80;11.20;;;6.10;99.90;;;;;;5053575;28;20203;-77
2024/01/13 07:16:32;;;;;;;16.42;10.88;;;6.00;99.90;;;;;;5039028;28;20177;-77
2024/01/13 07:18:57;;;;;;;14.15;10.75;;;6.00;99.90;;;;;;5065423;28;20184;-77
2024/01/13 07:21:23;;;;;;;16.60;11.60;;;6.00;99.90;;;;;;5068240;28;20609;-77
2024/01/13 07:23:49;;;;;;;15.17;9.83;;;6.00;99.90;;;;;;5047863;28;20191;-76
2024/01/13 07:26:15;;;;;;;13.87;10.20;;;6.00;99.90;;;;;;5070547;28;20188;-77
2024/01/13 07:28:40;;;;;;;12.80;10.10;;;6.00;99.90;;;;;;5049350;28;20241;-77
2024/01/13 07:31:06;;;;;;;15.32;11.15;;;6.00;99.90;;;;;;5058659;28;20276;-77
2024/01/13 07:33:32;;;;;;;19.67;11.67;;;5.90;99.90;;;;;;5041143;28;20291;-77
2024/01/13 07:35:58;;;;;;;14.67;10.60;;;6.00;99.90;;;;;;5064886;28;20994;-77
2024/01/13 07:38:24;;;;;;;17.70;11.30;;;5.90;99.90;;;;;;5070142;28;21167;-77
2024/01/13 07:40:49;;;;;;;13.50;10.00;;;5.90;99.90;;;;;;5041812;28;20197;-77
2024/01/13 07:43:15;;;;;;;12.33;10.70;;;5.90;99.90;;;;;;5050263;28;20179;-77
2024/01/13 07:45:41;;;;;;;16.80;11.50;;;5.90;99.90;;;;;;5014529;28;20284;-76
2024/01/13 07:48:07;;;;;;;14.90;10.93;;;5.90;99.90;;;;;;5052160;28;20168;-77
2024/01/13 07:50:32;;;;;;;18.70;11.20;;;5.90;99.90;;;;;;5069778;28;20627;-77
2024/01/13 07:52:59;;;;;;;13.60;10.30;;;5.90;99.90;;;;;;5070362;28;20571;-77
2024/01/13 07:55:24;;;;;;;16.40;10.30;;;5.90;99.90;;;;;;5052149;28;20184;-78
2024/01/13 07:57:50;;;;;;;14.87;11.60;;;6.00;99.90;;;;;;5067648;28;20502;-76
2024/01/13 08:00:17;;;;;;;15.25;12.20;;;5.90;99.90;;;;;;5056362;28;20188;-77
2024/01/13 08:02:42;;;;;;;19.15;12.52;;;6.00;99.90;;;;;;5044056;28;20252;-76
2024/01/13 08:05:08;;;;;;;14.73;10.70;;;6.00;99.90;;;;;;5037866;28;20212;-75
2024/01/13 08:07:34;;;;;;;15.07;11.10;;;6.00;99.90;;;;;;5040789;28;20184;-76
2024/01/13 08:10:00;;;;;;;14.60;11.63;;;6.00;99.90;;;;;;5043691;28;20725;-75
2024/01/13 08:12:26;;;;;;;14.10;11.57;;;6.00;99.90;;;;;;5063462;28;20228;-76
2024/01/13 08:14:52;;;;;;;15.90;10.73;;;6.00;99.90;;;;;;5021657;28;20875;-76
2024/01/13 08:17:17;;;;;;;14.47;11.17;;;6.00;99.90;;;;;;5044220;28;20177;-76
2024/01/13 08:19:43;;;;;;;12.97;10.47;;;6.00;99.90;;;;;;5049812;28;20323;-76
2024/01/13 08:22:09;;;;;;;15.10;12.33;;;6.00;99.90;;;;;;5032573;28;20169;-77
2024/01/13 08:24:35;;;;;;;14.17;11.20;;;6.00;99.90;;;;;;5050128;28;20193;-76
2024/01/13 08:27:00;;;;;;;16.30;12.30;;;6.00;99.90;;;;;;5032134;28;20584;-76
2024/01/13 08:29:26;;;;;;;19.00;13.33;;;6.00;99.90;;;;;;5031428;28;20531;-75
2024/01/13 08:31:52;;;;;;;12.60;11.30;;;6.00;99.90;;;;;;5032376;28;20630;-78
2024/01/13 08:34:18;;;;;;;15.33;13.00;;;6.00;99.90;;;;;;5015833;28;20676;-76
2024/01/13 08:36:43;;;;;;;18.30;13.00;;;6.10;99.90;;;;;;5047662;28;20177;-76
2024/01/13 08:39:10;;;;;;;15.20;13.30;;;6.10;99.90;;;;;;5031501;28;20172;-76
2024/01/13 08:41:36;;;;;;;18.30;12.38;;;6.10;99.90;;;;;;5025320;28;20292;-76
2024/01/13 08:44:03;;;;;;;16.95;13.88;;;6.10;99.90;;;;;;5020747;28;20248;-77
2024/01/13 08:46:29;;;;;;;18.02;11.75;;;6.10;99.90;;;;;;5032164;28;20243;-76
2024/01/13 08:48:55;;;;;;;14.60;11.87;;;6.10;99.90;;;;;;5049095;28;20630;-76
2024/01/13 08:51:20;;;;;;;15.82;12.85;;;6.10;99.90;;;;;;5032188;28;20625;-77
2024/01/13 08:53:46;;;;;;;15.90;13.20;;;6.10;99.90;;;;;;5038517;28;20728;-76
2024/01/13 08:56:14;;;;;;;14.48;12.43;;;6.10;99.90;;;;;;5031799;28;20173;-76
2024/01/13 08:58:39;;;;;;;16.13;11.30;;;6.10;99.90;;;;;;5050551;28;20173;-77
2024/01/13 09:01:05;;;;;;;17.60;13.43;;;6.10;99.90;;;;;;5031487;28;20243;-75
2024/01/13 09:03:31;;;;;;;15.27;11.93;;;6.10;99.90;;;;;;5049995;28;20176;-75
2024/01/13 09:05:57;;;;;;;17.70;13.37;;;6.20;99.90;;;;;;5032035;28;20268;-77
2024/01/13 09:08:23;;;;;;;16.63;12.80;;;6.20;99.90;;;;;;5033853;28;21133;-77
2024/01/13 09:10:49;;;;;;;14.33;11.93;;;6.20;99.90;;;;;;5030394;28;20277;-78
2024/01/13 09:13:14;;;;;;;13.80;10.98;;;6.30;99.90;;;;;;5029596;28;20591;-76
2024/01/13 09:15:41;;;;;;;12.47;11.13;;;6.30;99.90;;;;;;5015570;28;20170;-77
2024/01/13 09:18:08;;;;;;;12.88;11.13;;;6.30;99.90;;;;;;5027059;28;20192;-76
2024/01/13 09:20:34;;;;;;;13.20;11.40;;;6.40;99.90;;;;;;5032852;28;20743;-76
2024/01/13 09:22:59;;;;;;;14.33;11.47;;;6.40;99.90;;;;;;5032193;28;20268;-76
2024/01/13 09:25:25;;;;;;;13.70;10.90;;;6.40;99.90;;;;;;5048992;28;20578;-75
2024/01/13 09:27:54;;;;;;;11.60;10.40;;;6.40;99.90;;;;;;5032713;28;20216;-76
2024/01/13 09:30:21;;;;;;;13.50;10.40;;;6.50;99.90;;;;;;5032485;28;20211;-76
2024/01/13 09:32:48;;;;;;;11.43;10.25;;;6.50;99.90;;;;;;5051054;28;20219;-76
2024/01/13 09:35:14;;;;;;;13.80;9.48;;;6.50;99.90;;;;;;5032841;28;20213;-76
2024/01/13 09:37:39;;;;;;;10.95;9.00;;;6.50;99.90;;;;;;5030479;28;20204;-76
2024/01/13 09:40:06;;;;;;;11.67;9.20;;;6.50;99.90;;;;;;5033718;28;20665;-76
2024/01/13 09:42:56;;;;;;;10.93;7.93;;;6.50;99.90;;;;;;5034973;28;20324;-76
2024/01/13 09:45:23;;;;;;;9.85;8.85;;;6.50;99.90;;;;;;5034881;28;20627;-76
2024/01/13 09:47:49;;;;;;;10.43;8.73;;;6.50;99.90;;;;;;5054179;28;20188;-76
2024/01/13 09:50:15;;;;;;;10.68;8.63;;;6.50;99.90;;;;;;5028022;28;20197;-76
2024/01/13 09:52:42;;;;;;;9.93;8.63;;;6.50;99.90;;;;;;5046160;23;20221;-74
2024/01/13 09:55:09;;;;;;;9.57;7.82;;;6.60;99.90;;;;;;5032573;28;20209;-74
2024/01/13 09:57:35;;;;;;;10.52;8.60;;;6.60;99.90;;;;;;5042850;28;20181;-74
2024/01/13 10:00:02;;;;;;;8.75;7.85;;;6.60;99.90;;;;;;5044745;28;20177;-74
2024/01/13 10:02:30;;;;;;;11.10;8.40;;;6.60;99.90;;;;;;5048228;28;20584;-73
2024/01/13 10:04:59;;;;;;;8.67;6.60;;;6.60;99.90;;;;;;5032529;28;20181;-74
2024/01/13 10:07:27;;;;;;;9.02;7.15;;;6.70;99.90;;;;;;5037626;28;21035;-74
2024/01/13 10:09:53;;;;;;;9.15;6.90;;;6.70;99.90;;;;;;5031597;28;20181;-74
2024/01/13 10:12:18;;;;;;;8.23;7.20;;;6.70;99.90;;;;;;5002329;28;20259;-74
2024/01/13 10:14:44;;;;;;;13.63;9.83;;;6.70;99.90;;;;;;5019250;28;20216;-74
2024/01/13 10:17:11;;;;;;;11.00;8.57;;;6.70;99.90;;;;;;5014405;28;20205;-74
2024/01/13 10:19:41;;;;;;;9.88;7.32;;;6.70;99.90;;;;;;5030767;28;20184;-74
2024/01/13 10:22:07;;;;;;;11.18;7.00;;;6.70;99.90;;;;;;5013983;28;20244;-76
2024/01/13 10:24:34;;;;;;;9.27;7.00;;;6.80;99.90;;;;;;5013733;28;20181;-76
2024/01/13 10:27:00;;;;;;;8.65;7.75;;;6.80;99.90;;;;;;5032606;28;20181;-76
2024/01/13 10:29:25;;;;;;;9.32;7.90;;;6.80;99.90;;;;;;5027477;28;20185;-76
2024/01/13 10:31:52;;;;;;;9.90;7.03;;;6.80;99.90;;;;;;4997723;28;20540;-76
2024/01/13 10:34:19;;;;;;;7.60;6.80;;;6.80;99.90;;;;;;5013913;28;20643;-76
2024/01/13 10:36:45;;;;;;;8.23;6.80;;;6.80;99.90;;;;;;4997926;28;20232;-76
2024/01/13 10:39:11;;;;;;;8.77;7.35;;;6.80;99.90;;;;;;5008549;28;20176;-76
2024/01/13 10:41:44;;;;;;;7.23;5.67;;;6.80;99.90;;;;;;5002116;28;20177;-76
2024/01/13 10:44:13;;;;;;;6.30;4.95;;;6.80;99.90;;;;;;5031648;28;20671;-76
2024/01/13 10:46:41;;;;;;;7.72;5.80;;;6.80;99.90;;;;;;4998993;28;20300;-76
2024/01/13 10:49:16;;;;;;;9.30;7.47;;;6.80;99.90;;;;;;5034264;28;20178;-76
2024/01/13 10:51:52;;;;;;;7.10;4.82;;;6.80;99.90;;;;;;5013718;28;20658;-76
2024/01/13 10:54:19;;;;;;;10.02;5.85;;;6.80;99.90;;;;;;5024968;28;20219;-76
2024/01/13 10:56:44;;;;;;;10.18;5.97;;;6.80;99.90;;;;;;5009062;28;20182;-76
2024/01/13 10:59:10;;;;;;;7.70;5.27;;;6.80;99.90;;;;;;5029345;28;20170;-76
2024/01/13 11:01:38;;;;;;;6.80;5.78;;;6.80;99.90;;;;;;5031341;28;20513;-77
2024/01/13 11:04:04;;;;;;;6.15;5.25;;;6.70;99.90;;;;;;4996863;28;20169;-76
2024/01/13 11:06:30;;;;;;;7.38;5.57;;;6.80;99.90;;;;;;5031049;28;20174;-77
2024/01/13 11:08:57;;;;;;;8.77;5.45;;;6.70;99.90;;;;;;5015068;28;20264;-77
2024/01/13 11:11:35;;;;;;;8.48;6.05;;;6.70;99.90;;;;;;5013354;28;20177;-76
2024/01/13 11:14:32;;;;;;;10.45;6.30;;;6.70;99.90;;;;;;5031196;28;20240;-76
2024/01/13 11:17:09;;;;;;;10.60;6.97;;;6.70;99.90;;;;;;5013256;28;20189;-76
2024/01/13 11:19:41;;;;;;;10.38;7.30;;;6.70;99.90;;;;;;5027583;28;20192;-76
2024/01/13 11:22:33;;;;;;;9.00;6.75;;;6.80;99.90;;;;;;5013704;28;20197;-76
2024/01/13 11:24:58;;;;;;;7.78;6.20;;;6.70;99.90;;;;;;5015009;28;20528;-76
2024/01/13 11:27:24;;;;;;;6.47;5.03;;;6.70;99.90;;;;;;4999238;28;20188;-76
2024/01/13 11:29:51;;;;;;;7.30;5.60;;;6.70;99.90;;;;;;5012113;28;20184;-76
2024/01/13 11:32:17;;;;;;;7.07;5.65;;;6.70;99.90;;;;;;5034569;28;20285;-76
2024/01/13 11:34:44;;;;;;;8.93;5.70;;;6.70;99.90;;;;;;5016036;28;20204;-76
2024/01/13 11:37:10;;;;;;;5.78;5.18;;;6.60;99.90;;;;;;5021326;28;20177;-76
2024/01/13 11:39:36;;;;;;;6.33;5.60;;;6.60;99.90;;;;;;4996362;28;20232;-76
2024/01/13 11:42:05;;;;;;;9.13;5.73;;;6.70;99.90;;;;;;5030898;28;20620;-76
2024/01/13 11:44:45;;;;;;;9.95;6.07;;;6.70;99.90;;;;;;5030755;28;20615;-76
2024/01/13 11:47:13;;;;;;;7.18;5.85;;;6.70;99.90;;;;;;5033330;28;20180;-76
2024/01/13 11:49:44;;;;;;;9.80;5.78;;;6.70;99.90;;;;;;5050055;28;20200;-76
2024/01/13 11:52:14;;;;;;;7.97;6.20;;;6.70;99.90;;;;;;5016112;28;20223;-76
2024/01/13 11:54:43;;;;;;;7.90;5.13;;;6.70;99.90;;;;;;5031813;28;20205;-76
2024/01/13 11:57:10;;;;;;;7.25;6.45;;;6.60;99.90;;;;;;5013390;28;20188;-76
2024/01/13 11:59:37;;;;;;;8.48;6.40;;;6.60;99.90;;;;;;5030064;28;20181;-76
2024/01/13 12:02:03;;;;;;;8.77;6.18;;;6.60;99.90;;;;;;5014439;28;20280;-76
2024/01/13 12:04:30;;;;;;;8.93;6.68;;;6.60;99.90;;;;;;5013567;28;20177;-76
2024/01/13 12:06:56;;;;;;;9.68;6.32;;;6.60;99.90;;;;;;5012357;28;20718;-76
2024/01/13 12:09:23;;;;;;;7.28;6.35;;;6.50;99.90;;;;;;5024735;28;20172;-76
2024/01/13 12:11:53;;;;;;;8.02;6.72;;;6.50;99.90;;;;;;5024427;28;20194;-76
2024/01/13 12:14:34;;;;;;;8.60;6.82;;;6.50;99.90;;;;;;4995807;28;20205;-75
2024/01/13 12:17:01;;;;;;;8.68;6.13;;;6.50;99.90;;;;;;5012278;28;20189;-75
2024/01/13 12:19:41;;;;;;;12.77;8.65;;;6.50;99.90;;;;;;5016416;28;20173;-76
2024/01/13 12:22:08;;;;;;;10.60;7.70;;;6.50;99.90;;;;;;5013638;28;20260;-76
2024/01/13 12:24:35;;;;;;;7.38;6.32;;;6.50;99.90;;;;;;5012404;28;20197;-77
2024/01/13 12:27:01;;;;;;;10.18;6.78;;;6.40;99.90;;;;;;5012128;28;20190;-75
2024/01/13 12:29:31;;;;;;;11.07;7.65;;;6.40;99.90;;;;;;5012139;28;20316;-75
2024/01/13 12:31:57;;;;;;;12.38;9.40;;;6.40;99.90;;;;;;5012188;28;20559;-75
2024/01/13 12:34:24;;;;;;;11.25;8.27;;;6.40;99.90;;;;;;5016545;28;20200;-75
2024/01/13 12:36:51;;;;;;;9.00;7.32;;;6.40;99.90;;;;;;5042173;28;20170;-75